sensor_id;sensor_type;location;lat;lon;timestamp;temperature;humidity
2621;DHT22;1320;48.128;11.592;2023-03-03T00:00:25;3.40;99.90
2621;DHT22;1320;48.128;11.592;2023-03-03T00:02:51;3.40;99.90
2621;DHT22;1320;48.128;11.592;2023-03-03T00:05:16;3.40;99.90
2621;DHT22;1320;48.128;11.592;2023-03-03T00:07:45;3.40;99.90
2621;DHT22;1320;48.128;11.592;2023-03-03T00:10:12;3.40;99.90
2621;DHT22;1320;48.128;11.592;2023-03-03T00:12:48;3.40;99.90
2621;DHT22;1320;48.128;11.592;2023-03-03T00:15:21;3.40;99.90
2621;DHT22;1320;48.128;11.592;2023-03-03T00:17:47;3.40;99.90
2621;DHT22;1320;48.128;11.592;2023-03-03T00:20:33;3.40;99.90
2621;DHT22;1320;48.128;11.592;2023-03-03T00:23:16;3.40;99.90
2621;DHT22;1320;48.128;11.592;2023-03-03T00:25:45;3.40;99.90
2621;DHT22;1320;48.128;11.592;2023-03-03T00:28:32;3.50;99.90
2621;DHT22;1320;48.128;11.592;2023-03-03T00:31:19;3.50;99.90
2621;DHT22;1320;48.128;11.592;2023-03-03T00:33:48;3.50;99.90
2621;DHT22;1320;48.128;11.592;2023-03-03T00:38:46;3.40;99.90
2621;DHT22;1320;48.128;11.592;2023-03-03T00:41:26;3.40;99.90
2621;DHT22;1320;48.128;11.592;2023-03-03T00:43:53;3.50;99.90
2621;DHT22;1320;48.128;11.592;2023-03-03T00:46:22;3.40;99.90
2621;DHT22;1320;48.128;11.592;2023-03-03T00:48:49;3.40;99.90
2621;DHT22;1320;48.128;11.592;2023-03-03T00:51:26;3.40;99.90
2621;DHT22;1320;48.128;11.592;2023-03-03T00:53:52;3.40;99.90
2621;DHT22;1320;48.128;11.592;2023-03-03T00:56:18;3.40;99.90
2621;DHT22;1320;48.128;11.592;2023-03-03T00:58:43;3.40;99.90
2621;DHT22;1320;48.128;11.592;2023-03-03T01:01:12;3.30;99.90
2621;DHT22;1320;48.128;11.592;2023-03-03T01:03:37;3.30;99.90
2621;DHT22;1320;48.128;11.592;2023-03-03T01:06:03;3.30;99.90
2621;DHT22;1320;48.128;11.592;2023-03-03T01:08:29;3.30;99.90
2621;DHT22;1320;48.128;11.592;2023-03-03T01:10:57;3.30;99.90
2621;DHT22;1320;48.128;11.592;2023-03-03T01:13:29;3.30;99.90
2621;DHT22;1320;48.128;11.592;2023-03-03T01:15:55;3.30;99.90
2621;DHT22;1320;48.128;11.592;2023-03-03T01:18:21;3.20;99.90
2621;DHT22;1320;48.128;11.592;2023-03-03T01:20:47;3.30;99.90
2621;DHT22;1320;48.128;11.592;2023-03-03T01:23:12;3.30;99.90
2621;DHT22;1320;48.128;11.592;2023-03-03T01:25:39;3.30;99.90
2621;DHT22;1320;48.128;11.592;2023-03-03T01:28:05;3.30;99.90
2621;DHT22;1320;48.128;11.592;2023-03-03T01:30:30;3.30;99.90
2621;DHT22;1320;48.128;11.592;2023-03-03T01:32:56;3.30;99.90
2621;DHT22;1320;48.128;11.592;2023-03-03T01:35:22;3.30;99.90
2621;DHT22;1320;48.128;11.592;2023-03-03T01:37:48;3.20;99.90
2621;DHT22;1320;48.128;11.592;2023-03-03T01:40:18;3.20;99.90
2621;DHT22;1320;48.128;11.592;2023-03-03T01:42:44;3.30;99.90
2621;DHT22;1320;48.128;11.592;2023-03-03T01:45:23;3.30;99.90
2621;DHT22;1320;48.128;11.592;2023-03-03T01:48:29;3.30;99.90
2621;DHT22;1320;48.128;11.592;2023-03-03T01:51:06;3.30;99.90
2621;DHT22;1320;48.128;11.592;2023-03-03T01:53:43;3.30;99.90
2621;DHT22;1320;48.128;11.592;2023-03-03T01:56:10;3.30;99.90
2621;DHT22;1320;48.128;11.592;2023-03-03T01:58:42;3.20;99.90
2621;DHT22;1320;48.128;11.592;2023-03-03T02:01:14;3.20;99.90
2621;DHT22;1320;48.128;11.592;2023-03-03T02:03:41;3.20;99.90
2621;DHT22;1320;48.128;11.592;2023-03-03T02:06:12;3.20;99.90
2621;DHT22;1320;48.128;11.592;2023-03-03T02:09:04;3.20;99.90
2621;DHT22;1320;48.128;11.592;2023-03-03T02:11:30;3.20;99.90
2621;DHT22;1320;48.128;11.592;2023-03-03T02:13:56;3.20;99.90
2621;DHT22;1320;48.128;11.592;2023-03-03T02:16:22;3.20;99.90
2621;DHT22;1320;48.128;11.592;2023-03-03T02:18:48;3.20;99.90
2621;DHT22;1320;48.128;11.592;2023-03-03T02:21:20;3.20;99.90
2621;DHT22;1320;48.128;11.592;2023-03-03T02:23:58;3.20;99.90
2621;DHT22;1320;48.128;11.592;2023-03-03T02:26:27;3.20;99.90
2621;DHT22;1320;48.128;11.592;2023-03-03T02:28:53;3.20;99.90
2621;DHT22;1320;48.128;11.592;2023-03-03T02:31:21;3.30;99.90
2621;DHT22;1320;48.128;11.592;2023-03-03T02:33:49;3.20;99.90
2621;DHT22;1320;48.128;11.592;2023-03-03T02:36:24;3.20;99.90
2621;DHT22;1320;48.128;11.592;2023-03-03T02:39:13;3.20;99.90
2621;DHT22;1320;48.128;11.592;2023-03-03T02:44:20;3.20;99.90
2621;DHT22;1320;48.128;11.592;2023-03-03T02:46:49;3.20;99.90
2621;DHT22;1320;48.128;11.592;2023-03-03T02:49:20;3.30;99.90
2621;DHT22;1320;48.128;11.592;2023-03-03T02:51:46;3.40;99.90
2621;DHT22;1320;48.128;11.592;2023-03-03T02:54:13;3.40;99.90
2621;DHT22;1320;48.128;11.592;2023-03-03T02:56:39;3.40;99.90
2621;DHT22;1320;48.128;11.592;2023-03-03T02:59:05;3.40;99.90
2621;DHT22;1320;48.128;11.592;2023-03-03T03:01:31;3.40;99.90
2621;DHT22;1320;48.128;11.592;2023-03-03T03:04:07;3.50;99.90
2621;DHT22;1320;48.128;11.592;2023-03-03T03:06:34;3.50;99.90
2621;DHT22;1320;48.128;11.592;2023-03-03T03:09:00;3.60;99.90
2621;DHT22;1320;48.128;11.592;2023-03-03T03:11:25;3.50;99.90
2621;DHT22;1320;48.128;11.592;2023-03-03T03:13:51;3.60;99.90
2621;DHT22;1320;48.128;11.592;2023-03-03T03:16:17;3.60;99.90
2621;DHT22;1320;48.128;11.592;2023-03-03T03:18:43;3.50;99.90
2621;DHT22;1320;48.128;11.592;2023-03-03T03:21:11;3.50;99.90
2621;DHT22;1320;48.128;11.592;2023-03-03T03:23:36;3.50;99.90
2621;DHT22;1320;48.128;11.592;2023-03-03T03:26:03;3.50;99.90
2621;DHT22;1320;48.128;11.592;2023-03-03T03:28:29;3.50;99.90
2621;DHT22;1320;48.128;11.592;2023-03-03T03:30:55;3.50;99.90
2621;DHT22;1320;48.128;11.592;2023-03-03T03:33:22;3.60;99.90
2621;DHT22;1320;48.128;11.592;2023-03-03T03:35:48;3.60;99.90
2621;DHT22;1320;48.128;11.592;2023-03-03T03:38:15;3.70;99.90
2621;DHT22;1320;48.128;11.592;2023-03-03T03:40:41;3.70;99.90
2621;DHT22;1320;48.128;11.592;2023-03-03T03:43:07;3.80;99.90
2621;DHT22;1320;48.128;11.592;2023-03-03T03:45:33;3.80;99.90
2621;DHT22;1320;48.128;11.592;2023-03-03T03:47:58;3.80;99.90
2621;DHT22;1320;48.128;11.592;2023-03-03T03:50:24;3.90;99.90
2621;DHT22;1320;48.128;11.592;2023-03-03T03:52:50;4.00;99.90
2621;DHT22;1320;48.128;11.592;2023-03-03T03:55:16;4.00;99.90
2621;DHT22;1320;48.128;11.592;2023-03-03T03:57:42;4.00;99.90
2621;DHT22;1320;48.128;11.592;2023-03-03T04:00:09;4.00;99.90
2621;DHT22;1320;48.128;11.592;2023-03-03T04:02:35;4.10;99.90
2621;DHT22;1320;48.128;11.592;2023-03-03T04:05:01;4.10;99.90
2621;DHT22;1320;48.128;11.592;2023-03-03T04:07:27;4.20;99.90
2621;DHT22;1320;48.128;11.592;2023-03-03T04:09:53;4.20;99.90
2621;DHT22;1320;48.128;11.592;2023-03-03T04:12:19;4.30;99.90
2621;DHT22;1320;48.128;11.592;2023-03-03T04:14:44;4.30;99.90
2621;DHT22;1320;48.128;11.592;2023-03-03T04:17:22;4.30;99.90
2621;DHT22;1320;48.128;11.592;2023-03-03T04:19:52;4.40;99.90
2621;DHT22;1320;48.128;11.592;2023-03-03T04:22:18;4.40;99.90
2621;DHT22;1320;48.128;11.592;2023-03-03T04:24:43;4.40;99.90
2621;DHT22;1320;48.128;11.592;2023-03-03T04:27:09;4.40;99.90
2621;DHT22;1320;48.128;11.592;2023-03-03T04:29:35;4.40;99.90
2621;DHT22;1320;48.128;11.592;2023-03-03T04:32:01;4.50;99.90
2621;DHT22;1320;48.128;11.592;2023-03-03T04:34:26;4.40;99.90
2621;DHT22;1320;48.128;11.592;2023-03-03T04:36:52;4.40;99.90
2621;DHT22;1320;48.128;11.592;2023-03-03T04:39:18;4.50;99.90
2621;DHT22;1320;48.128;11.592;2023-03-03T04:41:43;4.50;99.90
2621;DHT22;1320;48.128;11.592;2023-03-03T04:44:09;4.50;99.90
2621;DHT22;1320;48.128;11.592;2023-03-03T04:46:34;4.50;99.90
2621;DHT22;1320;48.128;11.592;2023-03-03T04:49:00;4.50;99.90
2621;DHT22;1320;48.128;11.592;2023-03-03T04:51:26;4.50;99.90
2621;DHT22;1320;48.128;11.592;2023-03-03T04:53:52;4.50;99.90
2621;DHT22;1320;48.128;11.592;2023-03-03T04:56:17;4.50;99.90
2621;DHT22;1320;48.128;11.592;2023-03-03T04:58:43;4.50;99.90
2621;DHT22;1320;48.128;11.592;2023-03-03T05:01:12;4.50;99.90
2621;DHT22;1320;48.128;11.592;2023-03-03T05:03:39;4.50;99.90
2621;DHT22;1320;48.128;11.592;2023-03-03T05:06:05;4.50;99.90
2621;DHT22;1320;48.128;11.592;2023-03-03T05:08:30;4.50;99.90
2621;DHT22;1320;48.128;11.592;2023-03-03T05:10:57;4.50;99.90
2621;DHT22;1320;48.128;11.592;2023-03-03T05:13:24;4.50;99.90
2621;DHT22;1320;48.128;11.592;2023-03-03T05:15:53;4.60;99.90
2621;DHT22;1320;48.128;11.592;2023-03-03T05:18:23;4.60;99.90
2621;DHT22;1320;48.128;11.592;2023-03-03T05:20:50;4.60;99.90
2621;DHT22;1320;48.128;11.592;2023-03-03T05:23:17;4.60;99.90
2621;DHT22;1320;48.128;11.592;2023-03-03T05:25:44;4.60;99.90
2621;DHT22;1320;48.128;11.592;2023-03-03T05:28:10;4.60;99.90
2621;DHT22;1320;48.128;11.592;2023-03-03T05:30:36;4.60;99.90
2621;DHT22;1320;48.128;11.592;2023-03-03T05:33:02;4.60;99.90
2621;DHT22;1320;48.128;11.592;2023-03-03T05:35:28;4.60;99.90
2621;DHT22;1320;48.128;11.592;2023-03-03T05:37:54;4.60;99.90
2621;DHT22;1320;48.128;11.592;2023-03-03T05:40:20;4.60;99.90
2621;DHT22;1320;48.128;11.592;2023-03-03T05:42:46;4.60;99.90
2621;DHT22;1320;48.128;11.592;2023-03-03T05:45:12;4.60;99.90
2621;DHT22;1320;48.128;11.592;2023-03-03T05:47:37;4.60;99.90
2621;DHT22;1320;48.128;11.592;2023-03-03T05:50:03;4.60;99.90
2621;DHT22;1320;48.128;11.592;2023-03-03T05:52:29;4.60;99.90
2621;DHT22;1320;48.128;11.592;2023-03-03T05:54:55;4.50;99.90
2621;DHT22;1320;48.128;11.592;2023-03-03T05:57:21;4.50;99.90
2621;DHT22;1320;48.128;11.592;2023-03-03T05:59:46;4.50;99.90
2621;DHT22;1320;48.128;11.592;2023-03-03T06:02:12;4.60;99.90
2621;DHT22;1320;48.128;11.592;2023-03-03T06:04:38;4.60;99.90
2621;DHT22;1320;48.128;11.592;2023-03-03T06:07:04;4.60;99.90
2621;DHT22;1320;48.128;11.592;2023-03-03T06:09:31;4.60;99.90
2621;DHT22;1320;48.128;11.592;2023-03-03T06:11:57;4.60;99.90
2621;DHT22;1320;48.128;11.592;2023-03-03T06:14:23;4.70;99.90
2621;DHT22;1320;48.128;11.592;2023-03-03T06:16:48;4.70;99.90
2621;DHT22;1320;48.128;11.592;2023-03-03T06:19:14;4.70;99.90
2621;DHT22;1320;48.128;11.592;2023-03-03T06:21:40;4.70;99.90
2621;DHT22;1320;48.128;11.592;2023-03-03T06:24:06;4.60;99.90
2621;DHT22;1320;48.128;11.592;2023-03-03T06:26:32;4.60;99.90
2621;DHT22;1320;48.128;11.592;2023-03-03T06:28:58;4.60;99.90
2621;DHT22;1320;48.128;11.592;2023-03-03T06:31:25;4.60;99.90
2621;DHT22;1320;48.128;11.592;2023-03-03T06:33:51;4.60;99.90
2621;DHT22;1320;48.128;11.592;2023-03-03T06:36:17;4.60;99.90
2621;DHT22;1320;48.128;11.592;2023-03-03T06:38:43;4.70;99.90
2621;DHT22;1320;48.128;11.592;2023-03-03T06:41:09;4.70;99.90
2621;DHT22;1320;48.128;11.592;2023-03-03T06:43:35;4.80;99.90
2621;DHT22;1320;48.128;11.592;2023-03-03T06:46:02;4.80;99.90
2621;DHT22;1320;48.128;11.592;2023-03-03T06:48:29;4.80;99.90
2621;DHT22;1320;48.128;11.592;2023-03-03T06:50:55;4.80;99.90
2621;DHT22;1320;48.128;11.592;2023-03-03T06:53:20;4.80;99.90
2621;DHT22;1320;48.128;11.592;2023-03-03T06:55:46;4.90;99.90
2621;DHT22;1320;48.128;11.592;2023-03-03T06:58:16;4.90;99.90
2621;DHT22;1320;48.128;11.592;2023-03-03T07:00:44;4.90;99.90
2621;DHT22;1320;48.128;11.592;2023-03-03T07:03:31;4.90;99.90
2621;DHT22;1320;48.128;11.592;2023-03-03T07:05:57;5.00;99.90
2621;DHT22;1320;48.128;11.592;2023-03-03T07:08:24;5.00;99.90
2621;DHT22;1320;48.128;11.592;2023-03-03T07:10:51;5.00;99.90
2621;DHT22;1320;48.128;11.592;2023-03-03T07:13:21;5.00;99.90
2621;DHT22;1320;48.128;11.592;2023-03-03T07:15:48;5.10;99.90
2621;DHT22;1320;48.128;11.592;2023-03-03T07:18:44;5.10;99.90
2621;DHT22;1320;48.128;11.592;2023-03-03T07:21:13;5.10;99.90
2621;DHT22;1320;48.128;11.592;2023-03-03T07:23:41;5.10;99.90
2621;DHT22;1320;48.128;11.592;2023-03-03T07:26:22;5.20;99.90
2621;DHT22;1320;48.128;11.592;2023-03-03T07:28:54;5.30;99.90
2621;DHT22;1320;48.128;11.592;2023-03-03T07:31:39;5.30;99.90
2621;DHT22;1320;48.128;11.592;2023-03-03T07:34:37;5.20;99.90
2621;DHT22;1320;48.128;11.592;2023-03-03T07:37:30;5.30;99.90
2621;DHT22;1320;48.128;11.592;2023-03-03T07:39:59;5.20;99.90
2621;DHT22;1320;48.128;11.592;2023-03-03T07:42:39;5.20;99.90
2621;DHT22;1320;48.128;11.592;2023-03-03T07:45:27;5.20;99.90
2621;DHT22;1320;48.128;11.592;2023-03-03T07:48:23;5.20;99.90
2621;DHT22;1320;48.128;11.592;2023-03-03T07:50:49;5.20;99.90
2621;DHT22;1320;48.128;11.592;2023-03-03T07:53:45;5.20;99.90
2621;DHT22;1320;48.128;11.592;2023-03-03T07:56:20;5.30;99.90
2621;DHT22;1320;48.128;11.592;2023-03-03T07:58:47;5.40;99.90
2621;DHT22;1320;48.128;11.592;2023-03-03T08:03:57;5.40;99.90
2621;DHT22;1320;48.128;11.592;2023-03-03T08:11:33;5.60;99.90
2621;DHT22;1320;48.128;11.592;2023-03-03T08:14:00;5.60;99.90
2621;DHT22;1320;48.128;11.592;2023-03-03T08:16:38;5.60;99.90
2621;DHT22;1320;48.128;11.592;2023-03-03T08:19:05;5.60;99.90
2621;DHT22;1320;48.128;11.592;2023-03-03T08:21:32;5.70;99.90
2621;DHT22;1320;48.128;11.592;2023-03-03T08:23:59;5.70;99.90
2621;DHT22;1320;48.128;11.592;2023-03-03T08:26:26;5.70;99.90
2621;DHT22;1320;48.128;11.592;2023-03-03T08:28:52;5.80;99.90
2621;DHT22;1320;48.128;11.592;2023-03-03T08:31:18;5.80;99.90
2621;DHT22;1320;48.128;11.592;2023-03-03T08:33:44;5.80;99.90
2621;DHT22;1320;48.128;11.592;2023-03-03T08:36:10;5.90;99.90
2621;DHT22;1320;48.128;11.592;2023-03-03T08:38:36;5.90;99.90
2621;DHT22;1320;48.128;11.592;2023-03-03T08:41:03;5.90;99.90
2621;DHT22;1320;48.128;11.592;2023-03-03T08:43:29;5.90;99.90
2621;DHT22;1320;48.128;11.592;2023-03-03T08:45:58;6.00;99.90
2621;DHT22;1320;48.128;11.592;2023-03-03T08:48:24;6.10;99.90
2621;DHT22;1320;48.128;11.592;2023-03-03T08:50:50;6.20;99.90
2621;DHT22;1320;48.128;11.592;2023-03-03T08:53:18;6.20;99.90
2621;DHT22;1320;48.128;11.592;2023-03-03T08:55:44;6.30;99.90
2621;DHT22;1320;48.128;11.592;2023-03-03T08:58:10;6.40;99.90
2621;DHT22;1320;48.128;11.592;2023-03-03T09:00:36;6.40;99.90
2621;DHT22;1320;48.128;11.592;2023-03-03T09:03:03;6.50;99.90
2621;DHT22;1320;48.128;11.592;2023-03-03T09:05:32;6.50;99.90
2621;DHT22;1320;48.128;11.592;2023-03-03T09:07:58;6.60;99.90
2621;DHT22;1320;48.128;11.592;2023-03-03T09:10:26;6.60;99.90
2621;DHT22;1320;48.128;11.592;2023-03-03T09:12:55;6.60;99.90
2621;DHT22;1320;48.128;11.592;2023-03-03T09:15:24;6.70;99.90
2621;DHT22;1320;48.128;11.592;2023-03-03T09:17:51;6.80;99.90
2621;DHT22;1320;48.128;11.592;2023-03-03T09:20:30;6.90;99.90
2621;DHT22;1320;48.128;11.592;2023-03-03T09:22:57;6.90;99.90
2621;DHT22;1320;48.128;11.592;2023-03-03T09:25:33;7.00;99.90
2621;DHT22;1320;48.128;11.592;2023-03-03T09:28:00;7.00;99.90
2621;DHT22;1320;48.128;11.592;2023-03-03T09:30:36;7.00;99.90
2621;DHT22;1320;48.128;11.592;2023-03-03T09:33:19;7.10;99.90
2621;DHT22;1320;48.128;11.592;2023-03-03T09:35:50;7.20;99.90
2621;DHT22;1320;48.128;11.592;2023-03-03T09:38:29;7.20;99.90
2621;DHT22;1320;48.128;11.592;2023-03-03T09:49:00;7.40;99.90
2621;DHT22;1320;48.128;11.592;2023-03-03T09:51:40;7.40;99.90
2621;DHT22;1320;48.128;11.592;2023-03-03T10:10:32;7.70;99.90
2621;DHT22;1320;48.128;11.592;2023-03-03T10:13:21;7.70;99.90
2621;DHT22;1320;48.128;11.592;2023-03-03T10:18:35;7.80;99.90
2621;DHT22;1320;48.128;11.592;2023-03-03T10:21:15;7.80;99.90
2621;DHT22;1320;48.128;11.592;2023-03-03T10:35:02;7.90;99.90
2621;DHT22;1320;48.128;11.592;2023-03-03T10:37:56;7.90;99.90
2621;DHT22;1320;48.128;11.592;2023-03-03T10:52:43;8.00;99.90
2621;DHT22;1320;48.128;11.592;2023-03-03T10:57:30;8.20;99.90
2621;DHT22;1320;48.128;11.592;2023-03-03T11:00:20;8.30;99.90
2621;DHT22;1320;48.128;11.592;2023-03-03T11:08:33;8.60;99.90
2621;DHT22;1320;48.128;11.592;2023-03-03T11:16:31;8.80;99.90
2621;DHT22;1320;48.128;11.592;2023-03-03T11:24:29;8.80;99.90
2621;DHT22;1320;48.128;11.592;2023-03-03T11:27:11;8.80;99.90
2621;DHT22;1320;48.128;11.592;2023-03-03T11:29:58;8.80;99.90
2621;DHT22;1320;48.128;11.592;2023-03-03T11:35:19;9.00;99.90
2621;DHT22;1320;48.128;11.592;2023-03-03T11:40:26;9.10;99.90
2621;DHT22;1320;48.128;11.592;2023-03-03T11:50:41;9.30;99.90
2621;DHT22;1320;48.128;11.592;2023-03-03T11:55:51;9.40;99.90
2621;DHT22;1320;48.128;11.592;2023-03-03T11:58:32;9.50;99.90
2621;DHT22;1320;48.128;11.592;2023-03-03T12:01:01;9.60;99.90
2621;DHT22;1320;48.128;11.592;2023-03-03T12:03:53;9.70;99.90
2621;DHT22;1320;48.128;11.592;2023-03-03T12:12:19;9.80;99.90
2621;DHT22;1320;48.128;11.592;2023-03-03T12:23:27;9.90;99.90
2621;DHT22;1320;48.128;11.592;2023-03-03T12:42:55;10.20;99.90
2621;DHT22;1320;48.128;11.592;2023-03-03T12:45:53;10.10;99.90
2621;DHT22;1320;48.128;11.592;2023-03-03T12:48:24;10.10;99.80
2621;DHT22;1320;48.128;11.592;2023-03-03T12:53:51;10.10;99.90
2621;DHT22;1320;48.128;11.592;2023-03-03T13:02:37;10.30;99.70
2621;DHT22;1320;48.128;11.592;2023-03-03T13:05:33;10.30;99.60
2621;DHT22;1320;48.128;11.592;2023-03-03T13:10:43;10.40;99.60
2621;DHT22;1320;48.128;11.592;2023-03-03T13:16:04;10.40;99.50
2621;DHT22;1320;48.128;11.592;2023-03-03T13:21:38;10.40;99.80
2621;DHT22;1320;48.128;11.592;2023-03-03T13:27:25;10.40;99.60
2621;DHT22;1320;48.128;11.592;2023-03-03T13:30:03;10.50;99.30
2621;DHT22;1320;48.128;11.592;2023-03-03T13:32:56;10.50;99.20
2621;DHT22;1320;48.128;11.592;2023-03-03T13:37:54;10.30;99.30
2621;DHT22;1320;48.128;11.592;2023-03-03T13:42:59;10.40;99.20
2621;DHT22;1320;48.128;11.592;2023-03-03T13:48:28;10.70;99.60
2621;DHT22;1320;48.128;11.592;2023-03-03T13:50:57;11.00;98.80
2621;DHT22;1320;48.128;11.592;2023-03-03T13:59:29;11.80;98.30
2621;DHT22;1320;48.128;11.592;2023-03-03T14:04:31;12.50;97.50
2621;DHT22;1320;48.128;11.592;2023-03-03T14:07:15;12.70;96.70
2621;DHT22;1320;48.128;11.592;2023-03-03T14:22:36;13.60;95.10
2621;DHT22;1320;48.128;11.592;2023-03-03T14:25:13;13.70;94.80
2621;DHT22;1320;48.128;11.592;2023-03-03T14:28:00;13.90;94.50
2621;DHT22;1320;48.128;11.592;2023-03-03T14:30:41;14.00;94.10
2621;DHT22;1320;48.128;11.592;2023-03-03T14:35:50;14.30;93.80
2621;DHT22;1320;48.128;11.592;2023-03-03T14:38:36;14.40;93.40
2621;DHT22;1320;48.128;11.592;2023-03-03T14:46:33;14.80;92.50
2621;DHT22;1320;48.128;11.592;2023-03-03T14:49:01;14.80;92.60
2621;DHT22;1320;48.128;11.592;2023-03-03T14:54:24;15.10;92.20
2621;DHT22;1320;48.128;11.592;2023-03-03T14:59:24;15.80;93.80
2621;DHT22;1320;48.128;11.592;2023-03-03T15:04:47;16.40;90.90
2621;DHT22;1320;48.128;11.592;2023-03-03T15:07:35;16.60;90.00
2621;DHT22;1320;48.128;11.592;2023-03-03T15:10:02;16.60;89.20
2621;DHT22;1320;48.128;11.592;2023-03-03T15:12:39;16.60;90.00
2621;DHT22;1320;48.128;11.592;2023-03-03T15:22:42;16.90;88.30
2621;DHT22;1320;48.128;11.592;2023-03-03T15:25:41;16.80;88.10
2621;DHT22;1320;48.128;11.592;2023-03-03T15:31:00;16.40;88.20
2621;DHT22;1320;48.128;11.592;2023-03-03T15:36:15;15.90;87.80
2621;DHT22;1320;48.128;11.592;2023-03-03T16:08:47;12.40;92.10
2621;DHT22;1320;48.128;11.592;2023-03-03T16:17:21;12.00;92.60
2621;DHT22;1320;48.128;11.592;2023-03-03T16:26:09;11.70;93.70
2621;DHT22;1320;48.128;11.592;2023-03-03T16:31:43;11.40;93.70
2621;DHT22;1320;48.128;11.592;2023-03-03T16:37:46;11.20;94.20
2621;DHT22;1320;48.128;11.592;2023-03-03T16:40:18;11.20;94.60
2621;DHT22;1320;48.128;11.592;2023-03-03T16:42:47;11.00;94.50
2621;DHT22;1320;48.128;11.592;2023-03-03T16:52:47;10.70;95.20
2621;DHT22;1320;48.128;11.592;2023-03-03T16:55:24;10.60;95.30
2621;DHT22;1320;48.128;11.592;2023-03-03T17:04:02;10.40;95.80
2621;DHT22;1320;48.128;11.592;2023-03-03T17:06:56;10.30;96.00
2621;DHT22;1320;48.128;11.592;2023-03-03T17:12:05;10.20;96.30
2621;DHT22;1320;48.128;11.592;2023-03-03T17:18:04;10.00;96.60
2621;DHT22;1320;48.128;11.592;2023-03-03T17:20:50;9.90;97.20
2621;DHT22;1320;48.128;11.592;2023-03-03T17:23:43;9.80;97.60
2621;DHT22;1320;48.128;11.592;2023-03-03T17:32:05;9.60;98.20
2621;DHT22;1320;48.128;11.592;2023-03-03T17:40:16;9.50;98.70
2621;DHT22;1320;48.128;11.592;2023-03-03T17:45:25;9.40;98.80
2621;DHT22;1320;48.128;11.592;2023-03-03T17:55:49;9.30;99.30
2621;DHT22;1320;48.128;11.592;2023-03-03T18:09:15;9.10;99.60
2621;DHT22;1320;48.128;11.592;2023-03-03T18:20:29;8.90;99.90
2621;DHT22;1320;48.128;11.592;2023-03-03T18:22:57;8.90;99.90
2621;DHT22;1320;48.128;11.592;2023-03-03T18:25:57;8.80;99.90
2621;DHT22;1320;48.128;11.592;2023-03-03T18:28:43;8.80;99.90
2621;DHT22;1320;48.128;11.592;2023-03-03T18:31:26;8.70;99.90
2621;DHT22;1320;48.128;11.592;2023-03-03T18:34:30;8.70;99.90
2621;DHT22;1320;48.128;11.592;2023-03-03T18:37:00;8.70;99.90
2621;DHT22;1320;48.128;11.592;2023-03-03T18:42:33;8.50;99.90
2621;DHT22;1320;48.128;11.592;2023-03-03T18:50:34;8.30;99.90
2621;DHT22;1320;48.128;11.592;2023-03-03T18:55:42;8.10;99.90
2621;DHT22;1320;48.128;11.592;2023-03-03T19:01:24;8.00;99.90
2621;DHT22;1320;48.128;11.592;2023-03-03T19:04:24;8.00;99.90
2621;DHT22;1320;48.128;11.592;2023-03-03T19:06:56;7.90;99.90
2621;DHT22;1320;48.128;11.592;2023-03-03T19:09:50;7.90;99.90
2621;DHT22;1320;48.128;11.592;2023-03-03T19:18:04;7.70;99.90
2621;DHT22;1320;48.128;11.592;2023-03-03T19:23:51;7.60;99.90
2621;DHT22;1320;48.128;11.592;2023-03-03T19:34:45;7.30;99.90
2621;DHT22;1320;48.128;11.592;2023-03-03T19:56:55;6.80;99.90
2621;DHT22;1320;48.128;11.592;2023-03-03T19:59:44;6.80;99.90
2621;DHT22;1320;48.128;11.592;2023-03-03T20:08:07;6.60;99.90
2621;DHT22;1320;48.128;11.592;2023-03-03T20:24:20;6.40;99.90
2621;DHT22;1320;48.128;11.592;2023-03-03T20:27:18;6.40;99.90
2621;DHT22;1320;48.128;11.592;2023-03-03T20:35:29;6.20;99.90
2621;DHT22;1320;48.128;11.592;2023-03-03T20:38:11;6.20;99.90
2621;DHT22;1320;48.128;11.592;2023-03-03T20:41:11;6.20;99.90
2621;DHT22;1320;48.128;11.592;2023-03-03T20:43:53;6.10;99.90
2621;DHT22;1320;48.128;11.592;2023-03-03T20:51:59;5.90;99.90
2621;DHT22;1320;48.128;11.592;2023-03-03T20:54:48;5.90;99.90
2621;DHT22;1320;48.128;11.592;2023-03-03T21:03:33;5.80;99.90
2621;DHT22;1320;48.128;11.592;2023-03-03T21:06:04;5.70;99.90
2621;DHT22;1320;48.128;11.592;2023-03-03T21:08:45;5.60;99.90
2621;DHT22;1320;48.128;11.592;2023-03-03T21:11:15;5.60;99.90
2621;DHT22;1320;48.128;11.592;2023-03-03T21:13:43;5.50;99.90
2621;DHT22;1320;48.128;11.592;2023-03-03T21:16:14;5.50;99.90
2621;DHT22;1320;48.128;11.592;2023-03-03T21:18:41;5.40;99.90
2621;DHT22;1320;48.128;11.592;2023-03-03T21:21:10;5.30;99.90
2621;DHT22;1320;48.128;11.592;2023-03-03T21:23:36;5.30;99.90
2621;DHT22;1320;48.128;11.592;2023-03-03T21:26:01;5.30;99.90
2621;DHT22;1320;48.128;11.592;2023-03-03T21:28:28;5.30;99.90
2621;DHT22;1320;48.128;11.592;2023-03-03T21:31:14;5.30;99.90
2621;DHT22;1320;48.128;11.592;2023-03-03T21:36:21;5.40;99.90
2621;DHT22;1320;48.128;11.592;2023-03-03T21:38:49;5.40;99.90
2621;DHT22;1320;48.128;11.592;2023-03-03T21:41:16;5.40;99.90
2621;DHT22;1320;48.128;11.592;2023-03-03T21:43:43;5.30;99.90
2621;DHT22;1320;48.128;11.592;2023-03-03T21:46:09;5.20;99.90
2621;DHT22;1320;48.128;11.592;2023-03-03T21:48:39;5.20;99.90
2621;DHT22;1320;48.128;11.592;2023-03-03T21:51:05;5.10;99.90
2621;DHT22;1320;48.128;11.592;2023-03-03T21:53:31;5.10;99.90
2621;DHT22;1320;48.128;11.592;2023-03-03T21:55:57;5.00;99.90
2621;DHT22;1320;48.128;11.592;2023-03-03T21:58:22;5.00;99.90
2621;DHT22;1320;48.128;11.592;2023-03-03T22:00:49;5.00;99.90
2621;DHT22;1320;48.128;11.592;2023-03-03T22:03:15;5.00;99.90
2621;DHT22;1320;48.128;11.592;2023-03-03T22:05:44;5.00;99.90
2621;DHT22;1320;48.128;11.592;2023-03-03T22:08:10;5.00;99.90
2621;DHT22;1320;48.128;11.592;2023-03-03T22:10:36;5.00;99.90
2621;DHT22;1320;48.128;11.592;2023-03-03T22:13:01;4.90;99.90
2621;DHT22;1320;48.128;11.592;2023-03-03T22:15:27;4.90;99.90
2621;DHT22;1320;48.128;11.592;2023-03-03T22:17:54;4.90;99.90
2621;DHT22;1320;48.128;11.592;2023-03-03T22:20:21;4.90;99.90
2621;DHT22;1320;48.128;11.592;2023-03-03T22:22:46;4.90;99.90
2621;DHT22;1320;48.128;11.592;2023-03-03T22:25:16;4.90;99.90
2621;DHT22;1320;48.128;11.592;2023-03-03T22:27:42;4.90;99.90
2621;DHT22;1320;48.128;11.592;2023-03-03T22:30:08;4.90;99.90
2621;DHT22;1320;48.128;11.592;2023-03-03T22:32:33;4.80;99.90
2621;DHT22;1320;48.128;11.592;2023-03-03T22:34:59;4.90;99.90
2621;DHT22;1320;48.128;11.592;2023-03-03T22:37:25;4.80;99.90
2621;DHT22;1320;48.128;11.592;2023-03-03T22:39:50;4.80;99.90
2621;DHT22;1320;48.128;11.592;2023-03-03T22:42:16;4.80;99.90
2621;DHT22;1320;48.128;11.592;2023-03-03T22:44:42;4.80;99.90
2621;DHT22;1320;48.128;11.592;2023-03-03T22:47:08;4.80;99.90
2621;DHT22;1320;48.128;11.592;2023-03-03T22:49:34;4.90;99.90
2621;DHT22;1320;48.128;11.592;2023-03-03T22:52:00;4.90;99.90
2621;DHT22;1320;48.128;11.592;2023-03-03T22:54:26;4.90;99.90
2621;DHT22;1320;48.128;11.592;2023-03-03T22:56:52;4.90;99.90
2621;DHT22;1320;48.128;11.592;2023-03-03T22:59:18;4.90;99.90
2621;DHT22;1320;48.128;11.592;2023-03-03T23:01:43;4.90;99.90
2621;DHT22;1320;48.128;11.592;2023-03-03T23:04:09;4.80;99.90
2621;DHT22;1320;48.128;11.592;2023-03-03T23:06:35;4.80;99.90
2621;DHT22;1320;48.128;11.592;2023-03-03T23:09:00;4.80;99.90
2621;DHT22;1320;48.128;11.592;2023-03-03T23:11:26;4.80;99.90
2621;DHT22;1320;48.128;11.592;2023-03-03T23:13:52;4.80;99.90